sensor_id;sensor_type;location;lat;lon;timestamp;temperature;humidity
612;DHT22;293;53.888;11.464;2024-03-17T00:02:09;6.50;99.90
612;DHT22;293;53.888;11.464;2024-03-17T00:04:36;6.50;99.90
612;DHT22;293;53.888;11.464;2024-03-17T00:07:03;6.40;99.90
612;DHT22;293;53.888;11.464;2024-03-17T00:09:30;6.40;99.90
612;DHT22;293;53.888;11.464;2024-03-17T00:11:56;6.40;99.90
612;DHT22;293;53.888;11.464;2024-03-17T00:14:24;6.40;99.90
612;DHT22;293;53.888;11.464;2024-03-17T00:16:50;6.40;99.90
612;DHT22;293;53.888;11.464;2024-03-17T00:19:17;6.50;99.90
612;DHT22;293;53.888;11.464;2024-03-17T00:21:43;6.40;99.90
612;DHT22;293;53.888;11.464;2024-03-17T00:24:12;6.40;99.90
612;DHT22;293;53.888;11.464;2024-03-17T00:26:39;6.40;99.90
612;DHT22;293;53.888;11.464;2024-03-17T00:29:06;6.40;99.90
612;DHT22;293;53.888;11.464;2024-03-17T00:31:32;6.30;99.90
612;DHT22;293;53.888;11.464;2024-03-17T00:33:59;6.30;99.90
612;DHT22;293;53.888;11.464;2024-03-17T00:36:25;6.30;99.90
612;DHT22;293;53.888;11.464;2024-03-17T00:38:52;6.20;99.90
612;DHT22;293;53.888;11.464;2024-03-17T00:41:19;6.30;99.90
612;DHT22;293;53.888;11.464;2024-03-17T00:43:47;6.30;99.90
612;DHT22;293;53.888;11.464;2024-03-17T00:46:12;6.30;99.90
612;DHT22;293;53.888;11.464;2024-03-17T00:48:39;6.30;99.90
612;DHT22;293;53.888;11.464;2024-03-17T00:51:06;6.30;99.90
612;DHT22;293;53.888;11.464;2024-03-17T00:53:32;6.40;99.90
612;DHT22;293;53.888;11.464;2024-03-17T00:55:59;6.40;99.90
612;DHT22;293;53.888;11.464;2024-03-17T00:58:27;6.30;99.90
612;DHT22;293;53.888;11.464;2024-03-17T01:00:54;6.30;99.90
612;DHT22;293;53.888;11.464;2024-03-17T01:03:20;6.30;99.90
612;DHT22;293;53.888;11.464;2024-03-17T01:05:47;6.40;99.90
612;DHT22;293;53.888;11.464;2024-03-17T01:08:14;6.40;99.90
612;DHT22;293;53.888;11.464;2024-03-17T01:10:41;6.30;99.90
612;DHT22;293;53.888;11.464;2024-03-17T01:13:07;6.40;99.90
612;DHT22;293;53.888;11.464;2024-03-17T01:15:37;6.40;99.90
612;DHT22;293;53.888;11.464;2024-03-17T01:18:04;6.30;99.90
612;DHT22;293;53.888;11.464;2024-03-17T01:20:31;6.30;99.90
612;DHT22;293;53.888;11.464;2024-03-17T01:22:57;6.30;99.90
612;DHT22;293;53.888;11.464;2024-03-17T01:25:24;6.40;99.90
612;DHT22;293;53.888;11.464;2024-03-17T01:27:51;6.40;99.90
612;DHT22;293;53.888;11.464;2024-03-17T01:30:18;6.40;99.90
612;DHT22;293;53.888;11.464;2024-03-17T01:32:46;6.40;99.90
612;DHT22;293;53.888;11.464;2024-03-17T01:35:13;6.40;99.90
612;DHT22;293;53.888;11.464;2024-03-17T01:37:39;6.50;99.90
612;DHT22;293;53.888;11.464;2024-03-17T01:40:07;6.50;99.90
612;DHT22;293;53.888;11.464;2024-03-17T01:42:34;6.40;99.90
612;DHT22;293;53.888;11.464;2024-03-17T01:45:01;6.40;99.90
612;DHT22;293;53.888;11.464;2024-03-17T01:47:45;6.40;99.90
612;DHT22;293;53.888;11.464;2024-03-17T01:50:12;6.40;99.90
612;DHT22;293;53.888;11.464;2024-03-17T01:52:39;6.40;99.90
612;DHT22;293;53.888;11.464;2024-03-17T01:55:06;6.40;99.90
612;DHT22;293;53.888;11.464;2024-03-17T01:57:33;6.40;99.90
612;DHT22;293;53.888;11.464;2024-03-17T02:00:00;6.40;99.90
612;DHT22;293;53.888;11.464;2024-03-17T02:02:26;6.40;99.90
612;DHT22;293;53.888;11.464;2024-03-17T02:04:54;6.40;99.90
612;DHT22;293;53.888;11.464;2024-03-17T02:07:20;6.30;99.90
612;DHT22;293;53.888;11.464;2024-03-17T02:09:47;6.20;99.90
612;DHT22;293;53.888;11.464;2024-03-17T02:12:12;6.20;99.90
612;DHT22;293;53.888;11.464;2024-03-17T02:14:39;6.20;99.90
612;DHT22;293;53.888;11.464;2024-03-17T02:17:05;6.20;99.90
612;DHT22;293;53.888;11.464;2024-03-17T02:19:32;6.20;99.90
612;DHT22;293;53.888;11.464;2024-03-17T02:22:00;6.20;99.90
612;DHT22;293;53.888;11.464;2024-03-17T02:24:28;6.20;99.90
612;DHT22;293;53.888;11.464;2024-03-17T02:26:54;6.10;99.90
612;DHT22;293;53.888;11.464;2024-03-17T02:29:20;6.10;99.90
612;DHT22;293;53.888;11.464;2024-03-17T02:31:46;6.10;99.90
612;DHT22;293;53.888;11.464;2024-03-17T02:34:13;6.10;99.90
612;DHT22;293;53.888;11.464;2024-03-17T02:36:39;6.00;99.90
612;DHT22;293;53.888;11.464;2024-03-17T02:39:06;5.90;99.90
612;DHT22;293;53.888;11.464;2024-03-17T02:41:51;5.80;99.90
612;DHT22;293;53.888;11.464;2024-03-17T02:44:18;5.80;99.90
612;DHT22;293;53.888;11.464;2024-03-17T02:46:45;5.70;99.90
612;DHT22;293;53.888;11.464;2024-03-17T02:49:13;5.70;99.90
612;DHT22;293;53.888;11.464;2024-03-17T02:51:43;5.60;99.90
612;DHT22;293;53.888;11.464;2024-03-17T02:54:10;5.50;99.90
612;DHT22;293;53.888;11.464;2024-03-17T02:56:37;5.50;99.90
612;DHT22;293;53.888;11.464;2024-03-17T02:59:05;5.40;99.90
612;DHT22;293;53.888;11.464;2024-03-17T03:01:33;5.40;99.90
612;DHT22;293;53.888;11.464;2024-03-17T03:04:00;5.30;99.90
612;DHT22;293;53.888;11.464;2024-03-17T03:06:27;5.20;99.90
612;DHT22;293;53.888;11.464;2024-03-17T03:08:54;5.20;99.90
612;DHT22;293;53.888;11.464;2024-03-17T03:11:20;5.10;99.90
612;DHT22;293;53.888;11.464;2024-03-17T03:13:47;5.10;99.90
612;DHT22;293;53.888;11.464;2024-03-17T03:16:16;5.00;99.90
612;DHT22;293;53.888;11.464;2024-03-17T03:18:44;4.90;99.90
612;DHT22;293;53.888;11.464;2024-03-17T03:21:14;4.90;99.90
612;DHT22;293;53.888;11.464;2024-03-17T03:23:41;5.00;99.90
612;DHT22;293;53.888;11.464;2024-03-17T03:26:08;5.00;99.90
612;DHT22;293;53.888;11.464;2024-03-17T03:28:35;5.00;99.90
612;DHT22;293;53.888;11.464;2024-03-17T03:31:03;5.10;99.90
612;DHT22;293;53.888;11.464;2024-03-17T03:33:31;5.10;99.90
612;DHT22;293;53.888;11.464;2024-03-17T03:35:58;5.00;99.90
612;DHT22;293;53.888;11.464;2024-03-17T03:38:25;5.00;99.90
612;DHT22;293;53.888;11.464;2024-03-17T03:40:52;5.10;99.90
612;DHT22;293;53.888;11.464;2024-03-17T03:43:19;5.10;99.90
612;DHT22;293;53.888;11.464;2024-03-17T03:45:46;5.10;99.90
612;DHT22;293;53.888;11.464;2024-03-17T03:48:12;5.00;99.90
612;DHT22;293;53.888;11.464;2024-03-17T03:50:41;5.00;99.90
612;DHT22;293;53.888;11.464;2024-03-17T03:53:08;5.00;99.90
612;DHT22;293;53.888;11.464;2024-03-17T03:55:34;5.00;99.90
612;DHT22;293;53.888;11.464;2024-03-17T03:58:01;5.00;99.90
612;DHT22;293;53.888;11.464;2024-03-17T04:00:29;5.00;99.90
612;DHT22;293;53.888;11.464;2024-03-17T04:02:58;5.00;99.90
612;DHT22;293;53.888;11.464;2024-03-17T04:05:26;4.90;99.90
612;DHT22;293;53.888;11.464;2024-03-17T04:07:55;4.90;99.90
612;DHT22;293;53.888;11.464;2024-03-17T04:10:22;4.90;99.90
612;DHT22;293;53.888;11.464;2024-03-17T04:12:50;5.00;99.90
612;DHT22;293;53.888;11.464;2024-03-17T04:15:17;5.00;99.90
612;DHT22;293;53.888;11.464;2024-03-17T04:17:45;5.00;99.90
612;DHT22;293;53.888;11.464;2024-03-17T04:20:12;5.10;99.90
612;DHT22;293;53.888;11.464;2024-03-17T04:22:39;5.20;99.90
612;DHT22;293;53.888;11.464;2024-03-17T04:25:08;5.00;99.90
612;DHT22;293;53.888;11.464;2024-03-17T04:27:35;5.10;99.90
612;DHT22;293;53.888;11.464;2024-03-17T04:30:05;5.20;99.90
612;DHT22;293;53.888;11.464;2024-03-17T04:32:32;5.20;99.90
612;DHT22;293;53.888;11.464;2024-03-17T04:35:00;5.20;99.90
612;DHT22;293;53.888;11.464;2024-03-17T04:37:27;5.20;99.90
612;DHT22;293;53.888;11.464;2024-03-17T04:39:54;5.20;99.90
612;DHT22;293;53.888;11.464;2024-03-17T04:42:24;5.20;99.90
612;DHT22;293;53.888;11.464;2024-03-17T04:44:51;5.20;99.90
612;DHT22;293;53.888;11.464;2024-03-17T04:47:18;5.20;99.90
612;DHT22;293;53.888;11.464;2024-03-17T04:49:45;5.20;99.90
612;DHT22;293;53.888;11.464;2024-03-17T04:52:13;5.10;99.90
612;DHT22;293;53.888;11.464;2024-03-17T04:54:42;5.20;99.90
612;DHT22;293;53.888;11.464;2024-03-17T04:57:09;5.10;99.90
612;DHT22;293;53.888;11.464;2024-03-17T04:59:37;5.00;99.90
612;DHT22;293;53.888;11.464;2024-03-17T05:02:04;4.90;99.90
612;DHT22;293;53.888;11.464;2024-03-17T05:04:31;4.90;99.90
612;DHT22;293;53.888;11.464;2024-03-17T05:06:58;4.70;99.90
612;DHT22;293;53.888;11.464;2024-03-17T05:09:25;4.70;99.90
612;DHT22;293;53.888;11.464;2024-03-17T05:11:52;4.60;99.90
612;DHT22;293;53.888;11.464;2024-03-17T05:14:19;4.60;99.90
612;DHT22;293;53.888;11.464;2024-03-17T05:16:49;4.60;99.90
612;DHT22;293;53.888;11.464;2024-03-17T05:19:16;4.60;99.90
612;DHT22;293;53.888;11.464;2024-03-17T05:21:44;4.50;99.90
612;DHT22;293;53.888;11.464;2024-03-17T05:24:11;4.50;99.90
612;DHT22;293;53.888;11.464;2024-03-17T05:26:38;4.50;99.90
612;DHT22;293;53.888;11.464;2024-03-17T05:29:06;4.60;99.90
612;DHT22;293;53.888;11.464;2024-03-17T05:31:33;4.50;99.90
612;DHT22;293;53.888;11.464;2024-03-17T05:34:01;4.50;99.90
612;DHT22;293;53.888;11.464;2024-03-17T05:36:28;4.50;99.90
612;DHT22;293;53.888;11.464;2024-03-17T05:38:59;4.40;99.90
612;DHT22;293;53.888;11.464;2024-03-17T05:41:26;4.40;99.90
612;DHT22;293;53.888;11.464;2024-03-17T05:43:54;4.40;99.90
612;DHT22;293;53.888;11.464;2024-03-17T05:46:24;4.40;99.90
612;DHT22;293;53.888;11.464;2024-03-17T05:48:52;4.50;99.90
612;DHT22;293;53.888;11.464;2024-03-17T05:51:20;4.70;99.90
612;DHT22;293;53.888;11.464;2024-03-17T05:53:48;4.80;99.90
612;DHT22;293;53.888;11.464;2024-03-17T05:56:15;4.90;99.90
612;DHT22;293;53.888;11.464;2024-03-17T05:58:42;5.00;99.90
612;DHT22;293;53.888;11.464;2024-03-17T06:01:09;5.10;99.90
612;DHT22;293;53.888;11.464;2024-03-17T06:03:37;5.10;99.90
612;DHT22;293;53.888;11.464;2024-03-17T06:06:05;5.20;99.90
612;DHT22;293;53.888;11.464;2024-03-17T06:08:34;5.20;99.90
612;DHT22;293;53.888;11.464;2024-03-17T06:11:01;5.30;99.90
612;DHT22;293;53.888;11.464;2024-03-17T06:13:30;5.40;99.90
612;DHT22;293;53.888;11.464;2024-03-17T06:15:56;5.50;99.90
612;DHT22;293;53.888;11.464;2024-03-17T06:18:26;5.60;99.90
612;DHT22;293;53.888;11.464;2024-03-17T06:20:54;5.80;99.90
612;DHT22;293;53.888;11.464;2024-03-17T06:23:23;5.80;99.90
612;DHT22;293;53.888;11.464;2024-03-17T06:25:54;5.80;99.90
612;DHT22;293;53.888;11.464;2024-03-17T06:28:21;5.80;99.90
612;DHT22;293;53.888;11.464;2024-03-17T06:30:55;5.80;99.90
612;DHT22;293;53.888;11.464;2024-03-17T06:33:22;5.80;99.90
612;DHT22;293;53.888;11.464;2024-03-17T06:35:50;5.80;99.90
612;DHT22;293;53.888;11.464;2024-03-17T06:38:17;5.90;99.90
612;DHT22;293;53.888;11.464;2024-03-17T06:40:48;5.90;99.90
612;DHT22;293;53.888;11.464;2024-03-17T06:43:17;5.90;99.90
612;DHT22;293;53.888;11.464;2024-03-17T06:45:44;5.80;99.90
612;DHT22;293;53.888;11.464;2024-03-17T06:48:19;5.80;99.90
612;DHT22;293;53.888;11.464;2024-03-17T06:50:46;5.80;99.90
612;DHT22;293;53.888;11.464;2024-03-17T06:53:13;5.80;99.90
612;DHT22;293;53.888;11.464;2024-03-17T06:55:40;5.70;99.90
612;DHT22;293;53.888;11.464;2024-03-17T06:58:07;5.80;99.90
612;DHT22;293;53.888;11.464;2024-03-17T07:00:35;5.90;99.90
612;DHT22;293;53.888;11.464;2024-03-17T07:03:02;5.90;99.90
612;DHT22;293;53.888;11.464;2024-03-17T07:05:29;5.90;99.90
612;DHT22;293;53.888;11.464;2024-03-17T07:07:58;5.80;99.90
612;DHT22;293;53.888;11.464;2024-03-17T07:10:25;5.90;99.90
612;DHT22;293;53.888;11.464;2024-03-17T07:12:52;5.90;99.90
612;DHT22;293;53.888;11.464;2024-03-17T07:15:19;6.00;99.90
612;DHT22;293;53.888;11.464;2024-03-17T07:17:47;6.00;99.90
612;DHT22;293;53.888;11.464;2024-03-17T07:20:14;6.00;99.90
612;DHT22;293;53.888;11.464;2024-03-17T07:22:41;6.10;99.90
612;DHT22;293;53.888;11.464;2024-03-17T07:25:08;6.10;99.90
612;DHT22;293;53.888;11.464;2024-03-17T07:27:35;6.10;99.90
612;DHT22;293;53.888;11.464;2024-03-17T07:30:05;6.10;99.90
612;DHT22;293;53.888;11.464;2024-03-17T07:32:32;6.20;99.90
612;DHT22;293;53.888;11.464;2024-03-17T07:35:00;6.20;99.90
612;DHT22;293;53.888;11.464;2024-03-17T07:37:29;6.30;99.90
612;DHT22;293;53.888;11.464;2024-03-17T07:39:55;6.30;99.90
612;DHT22;293;53.888;11.464;2024-03-17T07:42:22;6.40;99.90
612;DHT22;293;53.888;11.464;2024-03-17T07:44:49;6.40;99.90
612;DHT22;293;53.888;11.464;2024-03-17T07:47:16;6.50;99.90
612;DHT22;293;53.888;11.464;2024-03-17T07:49:46;6.60;99.90
612;DHT22;293;53.888;11.464;2024-03-17T07:52:14;6.60;99.90
612;DHT22;293;53.888;11.464;2024-03-17T07:54:41;6.70;99.90
612;DHT22;293;53.888;11.464;2024-03-17T07:57:08;6.90;99.90
612;DHT22;293;53.888;11.464;2024-03-17T07:59:35;7.00;99.90
612;DHT22;293;53.888;11.464;2024-03-17T08:02:02;7.20;99.90
612;DHT22;293;53.888;11.464;2024-03-17T08:04:29;7.10;99.90
612;DHT22;293;53.888;11.464;2024-03-17T08:06:56;6.90;99.90
612;DHT22;293;53.888;11.464;2024-03-17T08:09:25;6.80;99.90
612;DHT22;293;53.888;11.464;2024-03-17T08:11:52;6.80;99.90
612;DHT22;293;53.888;11.464;2024-03-17T08:14:19;6.80;99.90
612;DHT22;293;53.888;11.464;2024-03-17T08:16:46;6.60;99.90
612;DHT22;293;53.888;11.464;2024-03-17T08:19:13;6.50;99.90
612;DHT22;293;53.888;11.464;2024-03-17T08:21:40;6.40;99.90
612;DHT22;293;53.888;11.464;2024-03-17T08:24:07;6.40;99.90
612;DHT22;293;53.888;11.464;2024-03-17T08:26:35;6.30;99.90
612;DHT22;293;53.888;11.464;2024-03-17T08:29:02;6.30;99.90
612;DHT22;293;53.888;11.464;2024-03-17T08:31:28;6.20;99.90
612;DHT22;293;53.888;11.464;2024-03-17T08:33:55;6.20;99.90
612;DHT22;293;53.888;11.464;2024-03-17T08:36:22;6.30;99.90
612;DHT22;293;53.888;11.464;2024-03-17T08:38:50;6.20;99.90
612;DHT22;293;53.888;11.464;2024-03-17T08:41:17;6.20;99.90
612;DHT22;293;53.888;11.464;2024-03-17T08:43:45;6.20;99.90
612;DHT22;293;53.888;11.464;2024-03-17T08:46:12;6.10;99.90
612;DHT22;293;53.888;11.464;2024-03-17T08:48:41;6.10;99.90
612;DHT22;293;53.888;11.464;2024-03-17T08:51:08;6.20;99.90
612;DHT22;293;53.888;11.464;2024-03-17T08:53:36;6.20;99.90
612;DHT22;293;53.888;11.464;2024-03-17T08:56:05;6.20;99.90
612;DHT22;293;53.888;11.464;2024-03-17T08:58:34;6.20;99.90
612;DHT22;293;53.888;11.464;2024-03-17T09:01:06;6.20;99.90
612;DHT22;293;53.888;11.464;2024-03-17T09:03:33;6.20;99.90
612;DHT22;293;53.888;11.464;2024-03-17T09:06:00;6.20;99.90
612;DHT22;293;53.888;11.464;2024-03-17T09:08:27;6.20;99.90
612;DHT22;293;53.888;11.464;2024-03-17T09:10:55;6.20;99.90
612;DHT22;293;53.888;11.464;2024-03-17T09:13:23;6.20;99.90
612;DHT22;293;53.888;11.464;2024-03-17T09:15:52;6.20;99.90
612;DHT22;293;53.888;11.464;2024-03-17T09:18:20;6.20;99.90
612;DHT22;293;53.888;11.464;2024-03-17T09:20:56;6.30;99.90
612;DHT22;293;53.888;11.464;2024-03-17T09:23:23;6.20;99.90
612;DHT22;293;53.888;11.464;2024-03-17T09:25:55;6.20;99.90
612;DHT22;293;53.888;11.464;2024-03-17T09:28:22;6.20;99.90
612;DHT22;293;53.888;11.464;2024-03-17T09:30:49;6.20;99.90
612;DHT22;293;53.888;11.464;2024-03-17T09:33:20;6.30;99.90
612;DHT22;293;53.888;11.464;2024-03-17T09:35:53;6.30;99.90
612;DHT22;293;53.888;11.464;2024-03-17T09:38:21;6.30;99.90
612;DHT22;293;53.888;11.464;2024-03-17T09:40:48;6.30;99.90
612;DHT22;293;53.888;11.464;2024-03-17T09:43:18;6.30;99.90
612;DHT22;293;53.888;11.464;2024-03-17T09:45:45;6.40;99.90
612;DHT22;293;53.888;11.464;2024-03-17T09:48:15;6.30;99.90
612;DHT22;293;53.888;11.464;2024-03-17T09:50:49;6.40;99.90
612;DHT22;293;53.888;11.464;2024-03-17T09:53:17;6.40;99.90
612;DHT22;293;53.888;11.464;2024-03-17T09:55:46;6.40;99.90
612;DHT22;293;53.888;11.464;2024-03-17T09:58:16;6.40;99.90
612;DHT22;293;53.888;11.464;2024-03-17T10:00:43;6.30;99.90
612;DHT22;293;53.888;11.464;2024-03-17T10:03:10;6.40;99.90
612;DHT22;293;53.888;11.464;2024-03-17T10:05:38;6.40;99.90
612;DHT22;293;53.888;11.464;2024-03-17T10:08:20;6.30;99.90
612;DHT22;293;53.888;11.464;2024-03-17T10:10:52;6.30;99.90
612;DHT22;293;53.888;11.464;2024-03-17T10:13:20;6.30;99.90
612;DHT22;293;53.888;11.464;2024-03-17T10:15:48;6.30;99.90
612;DHT22;293;53.888;11.464;2024-03-17T10:18:20;6.40;99.90
612;DHT22;293;53.888;11.464;2024-03-17T10:20:48;6.50;99.90
612;DHT22;293;53.888;11.464;2024-03-17T10:23:19;6.50;99.90
612;DHT22;293;53.888;11.464;2024-03-17T10:25:46;6.60;99.90
612;DHT22;293;53.888;11.464;2024-03-17T10:28:15;6.50;99.90
612;DHT22;293;53.888;11.464;2024-03-17T10:30:42;6.40;99.90
612;DHT22;293;53.888;11.464;2024-03-17T10:33:23;6.40;99.90
612;DHT22;293;53.888;11.464;2024-03-17T10:35:58;6.40;99.90
612;DHT22;293;53.888;11.464;2024-03-17T10:38:27;6.40;99.90
612;DHT22;293;53.888;11.464;2024-03-17T10:40:54;6.30;99.90
612;DHT22;293;53.888;11.464;2024-03-17T10:43:21;6.30;99.90
612;DHT22;293;53.888;11.464;2024-03-17T10:45:52;6.30;99.90
612;DHT22;293;53.888;11.464;2024-03-17T10:48:21;6.30;99.90
612;DHT22;293;53.888;11.464;2024-03-17T10:50:50;6.20;99.90
612;DHT22;293;53.888;11.464;2024-03-17T10:53:20;6.20;99.90
612;DHT22;293;53.888;11.464;2024-03-17T10:56:00;6.30;99.90
612;DHT22;293;53.888;11.464;2024-03-17T10:58:34;6.20;99.90
612;DHT22;293;53.888;11.464;2024-03-17T11:01:02;6.20;99.90
612;DHT22;293;53.888;11.464;2024-03-17T11:03:31;6.30;99.90
612;DHT22;293;53.888;11.464;2024-03-17T11:06:01;6.30;99.90
612;DHT22;293;53.888;11.464;2024-03-17T11:08:30;6.40;99.90
612;DHT22;293;53.888;11.464;2024-03-17T11:10:59;6.50;99.90
612;DHT22;293;53.888;11.464;2024-03-17T11:13:26;6.40;99.90
612;DHT22;293;53.888;11.464;2024-03-17T11:15:54;6.40;99.90
612;DHT22;293;53.888;11.464;2024-03-17T11:18:35;6.40;99.90
612;DHT22;293;53.888;11.464;2024-03-17T11:21:04;6.50;99.90
612;DHT22;293;53.888;11.464;2024-03-17T11:23:37;6.50;99.90
612;DHT22;293;53.888;11.464;2024-03-17T11:26:06;6.60;99.90
612;DHT22;293;53.888;11.464;2024-03-17T11:28:51;6.50;99.90
612;DHT22;293;53.888;11.464;2024-03-17T11:31:35;6.50;99.90
612;DHT22;293;53.888;11.464;2024-03-17T11:34:03;6.40;99.90
612;DHT22;293;53.888;11.464;2024-03-17T11:36:36;6.40;99.90
612;DHT22;293;53.888;11.464;2024-03-17T11:39:04;6.40;99.90
612;DHT22;293;53.888;11.464;2024-03-17T11:41:43;6.40;99.90
612;DHT22;293;53.888;11.464;2024-03-17T11:44:30;6.40;99.90
612;DHT22;293;53.888;11.464;2024-03-17T11:46:58;6.50;99.90
612;DHT22;293;53.888;11.464;2024-03-17T11:49:27;6.50;99.90
612;DHT22;293;53.888;11.464;2024-03-17T11:51:55;6.60;99.90
612;DHT22;293;53.888;11.464;2024-03-17T11:54:22;6.50;99.90
612;DHT22;293;53.888;11.464;2024-03-17T11:56:52;6.60;99.90
612;DHT22;293;53.888;11.464;2024-03-17T11:59:18;6.60;99.90
612;DHT22;293;53.888;11.464;2024-03-17T12:01:46;6.60;99.90
612;DHT22;293;53.888;11.464;2024-03-17T12:04:13;6.70;99.90
612;DHT22;293;53.888;11.464;2024-03-17T12:06:44;6.60;99.90
612;DHT22;293;53.888;11.464;2024-03-17T12:09:18;6.60;99.90
612;DHT22;293;53.888;11.464;2024-03-17T12:11:47;6.70;99.90
612;DHT22;293;53.888;11.464;2024-03-17T12:14:17;6.60;99.90
612;DHT22;293;53.888;11.464;2024-03-17T12:16:49;6.60;99.90
612;DHT22;293;53.888;11.464;2024-03-17T12:19:16;6.60;99.90
612;DHT22;293;53.888;11.464;2024-03-17T12:21:48;6.50;99.90
612;DHT22;293;53.888;11.464;2024-03-17T12:24:17;6.60;99.90
612;DHT22;293;53.888;11.464;2024-03-17T12:26:44;6.50;99.90
612;DHT22;293;53.888;11.464;2024-03-17T12:29:27;6.60;99.90
612;DHT22;293;53.888;11.464;2024-03-17T12:31:56;6.50;99.90
612;DHT22;293;53.888;11.464;2024-03-17T12:34:25;6.60;99.90
612;DHT22;293;53.888;11.464;2024-03-17T12:36:53;6.60;99.90
612;DHT22;293;53.888;11.464;2024-03-17T12:39:21;6.60;99.90
612;DHT22;293;53.888;11.464;2024-03-17T12:42:02;6.60;99.90
612;DHT22;293;53.888;11.464;2024-03-17T12:44:30;6.60;99.90
612;DHT22;293;53.888;11.464;2024-03-17T12:46:57;6.60;99.90
612;DHT22;293;53.888;11.464;2024-03-17T12:49:26;6.60;99.90
612;DHT22;293;53.888;11.464;2024-03-17T12:51:52;6.50;99.90
612;DHT22;293;53.888;11.464;2024-03-17T12:54:21;6.40;99.90
612;DHT22;293;53.888;11.464;2024-03-17T12:56:48;6.60;99.90
612;DHT22;293;53.888;11.464;2024-03-17T12:59:43;6.60;99.90
612;DHT22;293;53.888;11.464;2024-03-17T13:02:27;6.70;99.90
612;DHT22;293;53.888;11.464;2024-03-17T13:05:14;6.70;99.90
612;DHT22;293;53.888;11.464;2024-03-17T13:07:42;6.80;99.90
612;DHT22;293;53.888;11.464;2024-03-17T13:10:12;6.70;99.90
612;DHT22;293;53.888;11.464;2024-03-17T13:12:40;6.70;99.90
612;DHT22;293;53.888;11.464;2024-03-17T13:15:09;6.70;99.90
612;DHT22;293;53.888;11.464;2024-03-17T13:17:37;6.70;99.90
612;DHT22;293;53.888;11.464;2024-03-17T13:20:06;6.80;99.90
612;DHT22;293;53.888;11.464;2024-03-17T13:22:37;6.80;99.90
612;DHT22;293;53.888;11.464;2024-03-17T13:25:08;6.80;99.90
612;DHT22;293;53.888;11.464;2024-03-17T13:27:35;6.80;99.90
612;DHT22;293;53.888;11.464;2024-03-17T13:30:03;6.70;99.90
612;DHT22;293;53.888;11.464;2024-03-17T13:32:33;6.70;99.90
612;DHT22;293;53.888;11.464;2024-03-17T13:34:59;6.60;99.90
612;DHT22;293;53.888;11.464;2024-03-17T13:37:26;6.50;99.90
612;DHT22;293;53.888;11.464;2024-03-17T13:39:53;6.50;99.90
612;DHT22;293;53.888;11.464;2024-03-17T13:42:20;6.60;99.90
612;DHT22;293;53.888;11.464;2024-03-17T13:44:47;6.70;99.90
612;DHT22;293;53.888;11.464;2024-03-17T13:47:14;6.80;99.90
612;DHT22;293;53.888;11.464;2024-03-17T13:49:44;6.80;99.90
612;DHT22;293;53.888;11.464;2024-03-17T13:52:12;6.70;99.90
612;DHT22;293;53.888;11.464;2024-03-17T13:54:39;6.70;99.90
612;DHT22;293;53.888;11.464;2024-03-17T13:57:06;6.70;99.90
612;DHT22;293;53.888;11.464;2024-03-17T13:59:33;6.70;99.90
612;DHT22;293;53.888;11.464;2024-03-17T14:02:01;6.70;99.90
612;DHT22;293;53.888;11.464;2024-03-17T14:04:28;6.60;99.90
612;DHT22;293;53.888;11.464;2024-03-17T14:06:57;6.50;99.90
612;DHT22;293;53.888;11.464;2024-03-17T14:09:24;6.60;99.90
612;DHT22;293;53.888;11.464;2024-03-17T14:11:50;6.60;99.90
612;DHT22;293;53.888;11.464;2024-03-17T14:14:18;6.60;99.90
612;DHT22;293;53.888;11.464;2024-03-17T14:16:45;6.60;99.90
612;DHT22;293;53.888;11.464;2024-03-17T14:19:12;6.50;99.90
612;DHT22;293;53.888;11.464;2024-03-17T14:21:39;6.60;99.90
612;DHT22;293;53.888;11.464;2024-03-17T14:24:07;6.50;99.90
612;DHT22;293;53.888;11.464;2024-03-17T14:26:36;6.50;99.90
612;DHT22;293;53.888;11.464;2024-03-17T14:29:02;6.60;99.90
612;DHT22;293;53.888;11.464;2024-03-17T14:31:32;6.60;99.90
612;DHT22;293;53.888;11.464;2024-03-17T14:34:02;6.60;99.90
612;DHT22;293;53.888;11.464;2024-03-17T14:36:30;6.60;99.90
612;DHT22;293;53.888;11.464;2024-03-17T14:38:58;6.60;99.90
612;DHT22;293;53.888;11.464;2024-03-17T14:41:29;6.60;99.90
612;DHT22;293;53.888;11.464;2024-03-17T14:43:56;6.40;99.90
612;DHT22;293;53.888;11.464;2024-03-17T14:46:23;6.30;99.90
612;DHT22;293;53.888;11.464;2024-03-17T14:48:50;6.40;99.90
612;DHT22;293;53.888;11.464;2024-03-17T14:51:17;6.40;99.90
612;DHT22;293;53.888;11.464;2024-03-17T14:53:44;6.50;99.90
612;DHT22;293;53.888;11.464;2024-03-17T14:56:15;6.50;99.90
612;DHT22;293;53.888;11.464;2024-03-17T14:58:44;6.50;99.90
612;DHT22;293;53.888;11.464;2024-03-17T15:01:11;6.50;99.90
612;DHT22;293;53.888;11.464;2024-03-17T15:03:39;6.30;99.90
612;DHT22;293;53.888;11.464;2024-03-17T15:06:09;6.30;99.90
612;DHT22;293;53.888;11.464;2024-03-17T15:08:36;6.30;99.90
612;DHT22;293;53.888;11.464;2024-03-17T15:11:03;6.30;99.90
612;DHT22;293;53.888;11.464;2024-03-17T15:13:31;6.20;99.90
612;DHT22;293;53.888;11.464;2024-03-17T15:15:59;6.20;99.90
612;DHT22;293;53.888;11.464;2024-03-17T15:18:27;6.20;99.90
612;DHT22;293;53.888;11.464;2024-03-17T15:20:54;6.20;99.90
612;DHT22;293;53.888;11.464;2024-03-17T15:23:21;6.20;99.90
612;DHT22;293;53.888;11.464;2024-03-17T15:25:59;6.20;99.90
612;DHT22;293;53.888;11.464;2024-03-17T15:28:26;6.30;99.90
612;DHT22;293;53.888;11.464;2024-03-17T15:30:53;6.30;99.90
612;DHT22;293;53.888;11.464;2024-03-17T15:33:21;6.40;99.90
612;DHT22;293;53.888;11.464;2024-03-17T15:35:49;6.40;99.90
612;DHT22;293;53.888;11.464;2024-03-17T15:38:17;6.50;99.90
612;DHT22;293;53.888;11.464;2024-03-17T15:40:45;6.50;99.90
612;DHT22;293;53.888;11.464;2024-03-17T15:43:12;6.50;99.90
612;DHT22;293;53.888;11.464;2024-03-17T15:45:39;6.60;99.90
612;DHT22;293;53.888;11.464;2024-03-17T15:48:07;6.50;99.90
612;DHT22;293;53.888;11.464;2024-03-17T15:50:36;6.50;99.90
612;DHT22;293;53.888;11.464;2024-03-17T15:53:05;6.50;99.90
612;DHT22;293;53.888;11.464;2024-03-17T15:55:32;6.50;99.90
612;DHT22;293;53.888;11.464;2024-03-17T15:57:59;6.50;99.90
612;DHT22;293;53.888;11.464;2024-03-17T16:00:26;6.60;99.90
612;DHT22;293;53.888;11.464;2024-03-17T16:02:53;6.50;99.90
612;DHT22;293;53.888;11.464;2024-03-17T16:05:21;6.50;99.90
612;DHT22;293;53.888;11.464;2024-03-17T16:07:50;6.50;99.90
612;DHT22;293;53.888;11.464;2024-03-17T16:10:20;6.50;99.90
612;DHT22;293;53.888;11.464;2024-03-17T16:12:47;6.50;99.90
612;DHT22;293;53.888;11.464;2024-03-17T16:15:14;6.50;99.90
612;DHT22;293;53.888;11.464;2024-03-17T16:17:42;6.50;99.90
612;DHT22;293;53.888;11.464;2024-03-17T16:23:03;6.50;99.90
612;DHT22;293;53.888;11.464;2024-03-17T16:25:30;6.40;99.90
612;DHT22;293;53.888;11.464;2024-03-17T16:27:57;6.30;99.90
612;DHT22;293;53.888;11.464;2024-03-17T16:30:26;6.30;99.90
612;DHT22;293;53.888;11.464;2024-03-17T16:32:53;6.20;99.90
612;DHT22;293;53.888;11.464;2024-03-17T16:35:20;6.30;99.90
612;DHT22;293;53.888;11.464;2024-03-17T16:37:47;6.20;99.90
612;DHT22;293;53.888;11.464;2024-03-17T16:40:15;6.20;99.90
612;DHT22;293;53.888;11.464;2024-03-17T16:42:42;6.20;99.90
612;DHT22;293;53.888;11.464;2024-03-17T16:45:10;6.30;99.90